Thunder radar more information blitzortung!


Radar de pluja more information rain snow radar


Visita la nostra xarxa de llocs de meteo:

Template documentation
and downloads

And another site



Extreme low temperature From: 13-12-2017 09:00 Until: 09:59 warning for: Extreme low temperature Level: Yellow info button

Pagina Historial Weather Underground text

Diari Resum Juliol 3, 2017 Unitats:  Mètric    Imperial   Tant
« Previous Dia
SegĂźent Dia »
Diari Setmana Mensual Anual Personalitzada
  Maxima: Minima: Media:
Temperatura: 31.8 °C 16.0 °C 25.4 °C
Punt de rosada: 14.3 °C 8.7 °C 11.4 °C
Humitat: 76 % 28 % 43 %
Wind Speed: 22.2 km/h 0.0 km/h 7.3 km/h
RĂ fegues de vent: 22.2 km/h - -
Vent:- - SSW
Pression baro: 1021.9 hPa 1016.8 hPa -
Precipitacions: 0.0 mm    
Historical Graphs
 
 
Dades de taula per Juliol 3, 2017
Temps Temperatura Punt de rosada Pression baro Vent Wind Speed RĂ fegues de vent Humitat Rainfall Rate (Hourly)
00:00 16.8 °C 10.8 °C 1019.9 hPa Calm     68 % 0.0 mm
00:03 20.5 °C 10.9 °C 1021.9 hPa NE 3.7 km/h 3.7 km/h 54 % 0.0 mm
00:10 16.7 °C 10.8 °C 1019.9 hPa Calm     68 % 0.0 mm
00:20 16.3 °C 10.4 °C 1019.9 hPa SSW 3.2 km/h 3.2 km/h 68 % 0.0 mm
00:30 16.0 °C 10.3 °C 1019.9 hPa SW 1.6 km/h 3.2 km/h 69 % 0.0 mm
00:40 16.1 °C 10.6 °C 1019.9 hPa Calm   1.6 km/h 70 % 0.0 mm
00:50 16.2 °C 10.7 °C 1019.9 hPa Calm     70 % 0.0 mm
01:00 16.1 °C 10.6 °C 1019.9 hPa Calm     70 % 0.0 mm
01:10 16.1 °C 10.6 °C 1019.9 hPa Calm   1.6 km/h 70 % 0.0 mm
01:20 16.2 °C 10.9 °C 1019.9 hPa Calm   1.6 km/h 71 % 0.0 mm
01:30 16.1 °C 10.6 °C 1020.9 hPa Calm   1.6 km/h 70 % 0.0 mm
01:40 16.0 °C 10.7 °C 1020.9 hPa ENE 1.6 km/h 1.6 km/h 71 % 0.0 mm
01:50 16.3 °C 11.1 °C 1020.9 hPa Calm   1.6 km/h 71 % 0.0 mm
02:00 16.7 °C 11.4 °C 1020.9 hPa NE 1.6 km/h 1.6 km/h 71 % 0.0 mm
02:10 16.4 °C 10.7 °C 1020.9 hPa NNE 1.6 km/h 3.2 km/h 69 % 0.0 mm
02:20 16.4 °C 10.7 °C 1020.9 hPa SW 3.2 km/h 3.2 km/h 69 % 0.0 mm
02:30 16.6 °C 10.9 °C 1020.9 hPa SW 1.6 km/h 3.2 km/h 69 % 0.0 mm
02:40 17.3 °C 11.6 °C 1020.9 hPa Calm   4.8 km/h 69 % 0.0 mm
02:50 17.4 °C 11.2 °C 1021.9 hPa SSW 1.6 km/h 4.8 km/h 67 % 0.0 mm
03:00 18.2 °C 11.9 °C 1021.9 hPa Calm   1.6 km/h 67 % 0.0 mm
03:10 18.2 °C 11.5 °C 1021.9 hPa SW 1.6 km/h 3.2 km/h 65 % 0.0 mm
03:20 19.1 °C 11.9 °C 1021.9 hPa Calm   3.2 km/h 63 % 0.0 mm
03:30 19.5 °C 11.5 °C 1021.9 hPa East 3.2 km/h 6.4 km/h 60 % 0.0 mm
03:40 20.2 °C 11.7 °C 1021.9 hPa NE 3.2 km/h 3.2 km/h 58 % 0.0 mm
03:50 20.2 °C 11.4 °C 1021.9 hPa NNE 3.2 km/h 6.4 km/h 57 % 0.0 mm
04:00 21.1 °C 12.0 °C 1021.9 hPa NNE 8.0 km/h 8.0 km/h 56 % 0.0 mm
04:10 21.5 °C 12.1 °C 1021.9 hPa NNE 3.2 km/h 6.4 km/h 55 % 0.0 mm
04:20 22.4 °C 12.6 °C 1021.9 hPa ESE 1.6 km/h 3.2 km/h 54 % 0.0 mm
04:30 22.6 °C 12.6 °C 1021.9 hPa SSW 1.6 km/h 4.8 km/h 53 % 0.0 mm
04:40 23.0 °C 12.6 °C 1021.9 hPa SW 1.6 km/h 4.8 km/h 52 % 0.0 mm
04:50 23.2 °C 12.5 °C 1021.9 hPa SSW 1.6 km/h 4.8 km/h 51 % 0.0 mm
05:00 23.5 °C 12.8 °C 1021.9 hPa Calm   6.4 km/h 51 % 0.0 mm
05:10 24.4 °C 13.3 °C 1021.9 hPa SSW 1.6 km/h 4.8 km/h 50 % 0.0 mm
05:20 24.9 °C 13.4 °C 1021.9 hPa South 3.2 km/h 4.8 km/h 49 % 0.0 mm
05:30 25.0 °C 12.9 °C 1021.9 hPa SSE 4.8 km/h 4.8 km/h 47 % 0.0 mm
05:35 24.2 °C 12.2 °C 1021.9 hPa SE 3.2 km/h 6.4 km/h 47 % 0.0 mm
10:36 24.3 °C 12.3 °C 1021.9 hPa East 4.7 km/h 5.8 km/h 47 % 0.0 mm
10:37 24.3 °C 12.3 °C 1021.9 hPa SE 4.2 km/h 5.8 km/h 47 % 0.0 mm
10:42 25.0 °C 12.9 °C 1020.9 hPa WNW 5.6 km/h 5.6 km/h 47 % 0.0 mm
10:47 25.2 °C 13.1 °C 1020.9 hPa SW 7.4 km/h 7.4 km/h 47 % 0.0 mm
10:52 25.5 °C 13.1 °C 1020.9 hPa SE 3.7 km/h 3.7 km/h 46 % 0.0 mm
10:57 25.2 °C 12.8 °C 1020.9 hPa SSW 3.7 km/h 3.7 km/h 46 % 0.0 mm
11:02 25.6 °C 12.8 °C 1020.9 hPa SSE 5.6 km/h 5.6 km/h 45 % 0.0 mm
11:07 25.6 °C 12.8 °C 1020.9 hPa East 5.8 km/h 5.8 km/h 45 % 0.0 mm
11:12 25.5 °C 12.7 °C 1020.9 hPa ENE 5.6 km/h 5.6 km/h 45 % 0.0 mm
11:17 26.1 °C 12.9 °C 1020.9 hPa WSW 3.9 km/h 3.9 km/h 44 % 0.0 mm
11:22 26.2 °C 13.0 °C 1020.9 hPa SE 7.4 km/h 7.4 km/h 44 % 0.0 mm
11:27 26.5 °C 13.3 °C 1020.9 hPa SSW 5.6 km/h 5.6 km/h 44 % 0.0 mm
11:32 26.9 °C 13.6 °C 1020.9 hPa WNW 11.1 km/h 11.1 km/h 44 % 0.0 mm
11:37 28.1 °C 14.0 °C 1020.9 hPa SW 4.2 km/h 4.2 km/h 42 % 0.0 mm
11:42 28.0 °C 13.9 °C 1019.9 hPa WSW 7.4 km/h 7.4 km/h 42 % 0.0 mm
11:47 28.4 °C 14.2 °C 1019.9 hPa SW 5.6 km/h 5.6 km/h 42 % 0.0 mm
11:52 28.3 °C 13.8 °C 1019.9 hPa ESE 6.9 km/h 6.9 km/h 41 % 0.0 mm
11:57 27.8 °C 12.9 °C 1019.9 hPa SSE 5.6 km/h 5.6 km/h 40 % 0.0 mm
12:02 27.6 °C 13.2 °C 1019.9 hPa ESE 5.6 km/h 5.6 km/h 41 % 0.0 mm
12:07 27.9 °C 13.1 °C 1019.9 hPa ENE 5.6 km/h 5.6 km/h 40 % 0.0 mm
12:12 28.1 °C 13.6 °C 1019.9 hPa SW 6.4 km/h 6.4 km/h 41 % 0.0 mm
12:17 28.8 °C 13.8 °C 1019.9 hPa SW 9.3 km/h 9.3 km/h 40 % 0.0 mm
12:22 29.5 °C 13.7 °C 1019.9 hPa SW 3.9 km/h 3.9 km/h 38 % 0.0 mm
12:27 29.2 °C 13.4 °C 1019.9 hPa NW 5.6 km/h 5.6 km/h 38 % 0.0 mm
12:32 29.4 °C 13.6 °C 1019.9 hPa SW 7.4 km/h 7.4 km/h 38 % 0.0 mm
12:37 29.8 °C 13.6 °C 1019.9 hPa SSW 5.6 km/h 5.6 km/h 37 % 0.0 mm
12:42 29.8 °C 13.6 °C 1019.9 hPa SSW 3.7 km/h 3.7 km/h 37 % 0.0 mm
12:47 29.9 °C 13.2 °C 1019.9 hPa West 9.3 km/h 9.3 km/h 36 % 0.0 mm
12:52 29.6 °C 12.5 °C 1019.9 hPa WSW 13.0 km/h 13.0 km/h 35 % 0.0 mm
12:57 30.0 °C 12.9 °C 1019.9 hPa WSW 9.3 km/h 9.3 km/h 35 % 0.0 mm
13:02 30.1 °C 12.5 °C 1019.9 hPa WSW 11.1 km/h 11.1 km/h 34 % 0.0 mm
13:07 30.0 °C 11.9 °C 1019.9 hPa SW 9.7 km/h 9.7 km/h 33 % 0.0 mm
13:12 30.3 °C 12.2 °C 1019.9 hPa SSE 4.7 km/h 4.7 km/h 33 % 0.0 mm
13:17 30.4 °C 11.8 °C 1019.9 hPa SW 13.0 km/h 13.0 km/h 32 % 0.0 mm
13:22 30.6 °C 12.5 °C 1019.9 hPa SW 11.1 km/h 11.1 km/h 33 % 0.0 mm
13:27 30.3 °C 11.8 °C 1019.9 hPa South 9.3 km/h 9.3 km/h 32 % 0.0 mm
13:32 31.0 °C 11.9 °C 1019.9 hPa SSE 3.7 km/h 3.7 km/h 31 % 0.0 mm
13:37 29.9 °C 11.9 °C 1019.9 hPa WSW 5.3 km/h   33 % 0.0 mm
13:42 30.8 °C 12.7 °C 1019.9 hPa SSW 7.4 km/h 7.4 km/h 33 % 0.0 mm
13:47 30.9 °C 12.8 °C 1019.9 hPa West 11.1 km/h 11.1 km/h 33 % 0.0 mm
13:52 31.2 °C 12.6 °C 1019.9 hPa SSE 6.4 km/h 6.4 km/h 32 % 0.0 mm
13:57 31.2 °C 12.6 °C 1018.8 hPa SW 5.6 km/h 7.2 km/h 32 % 0.0 mm
14:02 31.7 °C 13.4 °C 1018.8 hPa West 7.4 km/h 7.4 km/h 33 % 0.0 mm
14:07 30.3 °C 13.1 °C 1018.8 hPa ENE 9.3 km/h 9.3 km/h 35 % 0.0 mm
14:12 30.5 °C 13.3 °C 1018.8 hPa SW 13.0 km/h 13.0 km/h 35 % 0.0 mm
14:17 31.5 °C 13.7 °C 1018.8 hPa SW 3.7 km/h 4.2 km/h 34 % 0.0 mm
14:22 31.7 °C 13.9 °C 1018.8 hPa SW 9.3 km/h 9.3 km/h 34 % 0.0 mm
14:27 31.5 °C 13.7 °C 1018.8 hPa West 11.4 km/h 11.4 km/h 34 % 0.0 mm
14:32 31.6 °C 13.8 °C 1018.8 hPa SW 10.0 km/h 10.0 km/h 34 % 0.0 mm
14:37 31.2 °C 13.5 °C 1018.8 hPa SSW 16.7 km/h 16.7 km/h 34 % 0.0 mm
14:42 31.5 °C 13.7 °C 1018.8 hPa SW 13.0 km/h 13.0 km/h 34 % 0.0 mm
14:47 31.4 °C 13.7 °C 1018.8 hPa WSW 9.7 km/h 9.7 km/h 34 % 0.0 mm
14:52 31.4 °C 13.2 °C 1018.8 hPa West 7.4 km/h 7.6 km/h 33 % 0.0 mm
14:57 31.4 °C 13.2 °C 1018.8 hPa SSW 14.8 km/h 14.8 km/h 33 % 0.0 mm
15:02 31.3 °C 12.6 °C 1018.8 hPa SSW 9.5 km/h 9.5 km/h 32 % 0.0 mm
15:07 31.2 °C 12.6 °C 1018.8 hPa SSW 14.8 km/h 14.8 km/h 32 % 0.0 mm
15:12 31.2 °C 12.6 °C 1018.8 hPa SW 14.8 km/h 14.8 km/h 32 % 0.0 mm
15:17 31.2 °C 12.1 °C 1018.8 hPa SW 9.3 km/h 9.3 km/h 31 % 0.0 mm
15:22 31.3 °C 12.2 °C 1018.8 hPa SW 11.1 km/h 11.1 km/h 31 % 0.0 mm
15:27 31.4 °C 12.2 °C 1018.8 hPa WNW 9.3 km/h 9.3 km/h 31 % 0.0 mm
15:32 31.2 °C 11.6 °C 1018.8 hPa SSW 6.9 km/h 7.2 km/h 30 % 0.0 mm
15:37 31.1 °C 11.5 °C 1018.8 hPa SW 9.5 km/h 9.5 km/h 30 % 0.0 mm
15:42 31.1 °C 11.5 °C 1018.8 hPa South 10.8 km/h 10.8 km/h 30 % 0.0 mm
15:47 31.5 °C 11.8 °C 1018.8 hPa SSW 14.8 km/h 14.8 km/h 30 % 0.0 mm
15:52 31.3 °C 11.7 °C 1018.8 hPa South 14.8 km/h 14.8 km/h 30 % 0.0 mm
15:57 31.3 °C 11.7 °C 1017.8 hPa SW 11.1 km/h 11.1 km/h 30 % 0.0 mm
16:02 30.8 °C 10.7 °C 1017.8 hPa SW 13.0 km/h 13.0 km/h 29 % 0.0 mm
16:07 31.4 °C 11.2 °C 1017.8 hPa WSW 16.1 km/h 16.1 km/h 29 % 0.0 mm
16:12 31.5 °C 11.3 °C 1017.8 hPa South 13.0 km/h 13.0 km/h 29 % 0.0 mm
16:17 31.8 °C 11.6 °C 1017.8 hPa SW 11.1 km/h 11.1 km/h 29 % 0.0 mm
16:22 31.0 °C 10.9 °C 1017.8 hPa SW 16.7 km/h 16.7 km/h 29 % 0.0 mm
16:27 30.7 °C 10.6 °C 1017.8 hPa WSW 14.5 km/h 14.5 km/h 29 % 0.0 mm
16:32 30.3 °C 9.8 °C 1017.8 hPa SW 20.4 km/h 20.4 km/h 28 % 0.0 mm
16:37 30.1 °C 9.6 °C 1017.8 hPa WNW 20.4 km/h 20.4 km/h 28 % 0.0 mm
16:42 29.8 °C 9.3 °C 1017.8 hPa SSW 16.7 km/h 16.7 km/h 28 % 0.0 mm
16:47 29.6 °C 9.2 °C 1017.8 hPa SW 14.8 km/h 14.8 km/h 28 % 0.0 mm
16:52 29.9 °C 9.4 °C 1017.8 hPa SSE 13.0 km/h 13.0 km/h 28 % 0.0 mm
16:57 29.4 °C 9.0 °C 1017.8 hPa SW 20.4 km/h 20.4 km/h 28 % 0.0 mm
17:02 29.6 °C 9.7 °C 1017.8 hPa WSW 15.6 km/h 15.6 km/h 29 % 0.0 mm
17:07 29.7 °C 9.8 °C 1017.8 hPa SSW 13.0 km/h 13.0 km/h 29 % 0.0 mm
17:12 29.2 °C 8.8 °C 1016.8 hPa SSW 16.7 km/h 16.7 km/h 28 % 0.0 mm
17:17 28.9 °C 9.1 °C 1016.8 hPa SW 20.4 km/h 20.4 km/h 29 % 0.0 mm
17:22 29.0 °C 8.7 °C 1016.8 hPa SW 14.8 km/h 14.8 km/h 28 % 0.0 mm
17:27 29.3 °C 9.4 °C 1017.8 hPa SSW 16.7 km/h 16.7 km/h 29 % 0.0 mm
17:32 29.2 °C 9.3 °C 1017.8 hPa South 14.8 km/h 14.8 km/h 29 % 0.0 mm
17:37 29.2 °C 9.3 °C 1017.8 hPa WSW 20.4 km/h 20.4 km/h 29 % 0.0 mm
17:42 28.9 °C 9.6 °C 1017.8 hPa SSW 14.8 km/h 14.8 km/h 30 % 0.0 mm
17:47 28.9 °C 9.6 °C 1017.8 hPa SW 13.7 km/h 13.7 km/h 30 % 0.0 mm
17:52 29.0 °C 9.2 °C 1017.8 hPa SW 16.7 km/h 16.7 km/h 29 % 0.0 mm
17:57 28.8 °C 9.5 °C 1016.8 hPa West 14.8 km/h 14.8 km/h 30 % 0.0 mm
18:02 28.9 °C 9.6 °C 1016.8 hPa SSE 13.0 km/h 13.0 km/h 30 % 0.0 mm
18:07 28.5 °C 9.2 °C 1016.8 hPa SSW 22.2 km/h 22.2 km/h 30 % 0.0 mm
18:12 28.7 °C 9.4 °C 1017.8 hPa SW 13.0 km/h 13.0 km/h 30 % 0.0 mm
18:17 28.7 °C 9.4 °C 1017.8 hPa SW 10.0 km/h 10.0 km/h 30 % 0.0 mm
18:22 28.5 °C 9.2 °C 1017.8 hPa SW 11.1 km/h 11.1 km/h 30 % 0.0 mm
18:27 28.7 °C 9.9 °C 1017.8 hPa SSW 12.6 km/h 12.6 km/h 31 % 0.0 mm
18:32 28.5 °C 9.7 °C 1017.8 hPa WSW 14.8 km/h 14.8 km/h 31 % 0.0 mm
18:37 27.9 °C 9.2 °C 1017.8 hPa South 11.1 km/h 11.1 km/h 31 % 0.0 mm
18:42 28.2 °C 9.4 °C 1017.8 hPa SSE 9.0 km/h 9.0 km/h 31 % 0.0 mm
18:47 28.2 °C 9.4 °C 1017.8 hPa SSW 8.7 km/h 8.7 km/h 31 % 0.0 mm
18:52 27.8 °C 9.6 °C 1017.8 hPa WSW 11.1 km/h 11.1 km/h 32 % 0.0 mm
18:57 27.5 °C 9.3 °C 1017.8 hPa SSW 16.7 km/h 16.7 km/h 32 % 0.0 mm
19:02 27.4 °C 9.2 °C 1017.8 hPa South 13.0 km/h 13.0 km/h 32 % 0.0 mm
19:07 27.3 °C 9.2 °C 1017.8 hPa South 13.0 km/h 13.0 km/h 32 % 0.0 mm
19:10 21.2 °C 11.5 °C 1021.9 hPa WSW 4.8 km/h 4.8 km/h 54 % 0.0 mm
19:12 27.4 °C 9.2 °C 1017.8 hPa SW 11.1 km/h 11.1 km/h 32 % 0.0 mm
19:17 27.1 °C 9.0 °C 1017.8 hPa South 9.5 km/h 9.5 km/h 32 % 0.0 mm
19:20 21.1 °C 11.7 °C 1018.8 hPa SW 1.6 km/h 4.8 km/h 55 % 0.0 mm
19:22 26.9 °C 9.3 °C 1017.8 hPa WSW 13.0 km/h 13.0 km/h 33 % 0.0 mm
19:27 26.7 °C 9.6 °C 1017.8 hPa South 9.3 km/h 9.3 km/h 34 % 0.0 mm
19:30 20.9 °C 11.8 °C 1018.8 hPa WSW 3.2 km/h 3.2 km/h 56 % 0.0 mm
19:32 26.8 °C 9.6 °C 1017.8 hPa SSW 14.8 km/h 14.8 km/h 34 % 0.0 mm
19:37 26.7 °C 9.6 °C 1017.8 hPa West 3.7 km/h 3.7 km/h 34 % 0.0 mm
19:40 20.8 °C 12.2 °C 1018.8 hPa WSW 1.6 km/h 3.2 km/h 58 % 0.0 mm
19:42 26.6 °C 9.9 °C 1017.8 hPa SW 13.0 km/h 13.0 km/h 35 % 0.0 mm
19:47 26.5 °C 9.8 °C 1017.8 hPa East 9.3 km/h 9.3 km/h 35 % 0.0 mm
19:50 20.7 °C 12.1 °C 1018.8 hPa West 1.6 km/h 4.8 km/h 58 % 0.0 mm
19:52 26.4 °C 10.1 °C 1017.8 hPa SW 11.1 km/h 11.1 km/h 36 % 0.0 mm
19:57 26.3 °C 10.1 °C 1017.8 hPa WSW 5.6 km/h 5.6 km/h 36 % 0.0 mm
20:00 20.7 °C 12.7 °C 1018.8 hPa West 3.2 km/h 4.8 km/h 60 % 0.0 mm
20:02 26.1 °C 9.8 °C 1017.8 hPa SSW 14.8 km/h 14.8 km/h 36 % 0.0 mm
20:07 26.1 °C 10.3 °C 1017.8 hPa SW 9.3 km/h 9.3 km/h 37 % 0.0 mm
20:10 20.6 °C 12.6 °C 1018.8 hPa West 3.2 km/h 3.2 km/h 60 % 0.0 mm
20:12 25.9 °C 10.1 °C 1017.8 hPa SSW 14.0 km/h 14.0 km/h 37 % 0.0 mm
20:17 25.8 °C 10.0 °C 1017.8 hPa South 9.3 km/h 9.3 km/h 37 % 0.0 mm
20:20 20.5 °C 12.9 °C 1018.8 hPa West 3.2 km/h 4.8 km/h 62 % 0.0 mm
20:22 25.7 °C 9.9 °C 1017.8 hPa SW 13.0 km/h 13.0 km/h 37 % 0.0 mm
20:27 25.5 °C 10.1 °C 1017.8 hPa SW 9.3 km/h 9.3 km/h 38 % 0.0 mm
20:32 25.4 °C 10.1 °C 1017.8 hPa SW 10.3 km/h 10.3 km/h 38 % 0.0 mm
20:34 25.3 °C 9.9 °C 1017.8 hPa WSW 11.1 km/h 11.1 km/h 38 % 0.0 mm
20:39 25.3 °C 9.9 °C 1017.8 hPa SSW 6.4 km/h 6.4 km/h 38 % 0.0 mm
20:40 20.3 °C 13.0 °C 1018.8 hPa WSW 3.2 km/h 3.2 km/h 63 % 0.0 mm
20:44 25.1 °C 10.2 °C 1017.8 hPa SW 9.0 km/h 9.0 km/h 39 % 0.0 mm
20:49 25.0 °C 10.1 °C 1017.8 hPa SSE 5.6 km/h 5.6 km/h 39 % 0.0 mm
20:50 20.3 °C 13.5 °C 1018.8 hPa West 3.2 km/h 3.2 km/h 65 % 0.0 mm
20:54 24.8 °C 10.3 °C 1017.8 hPa SW 9.3 km/h 9.3 km/h 40 % 0.0 mm
20:59 24.7 °C 10.2 °C 1017.8 hPa SW 3.7 km/h 3.7 km/h 40 % 0.0 mm
21:00 20.3 °C 13.7 °C 1017.8 hPa West 3.2 km/h 4.8 km/h 66 % 0.0 mm
21:04 24.6 °C 10.4 °C 1017.8 hPa SW 3.9 km/h 3.9 km/h 41 % 0.0 mm
21:09 24.5 °C 10.4 °C 1017.8 hPa SW 3.7 km/h 3.7 km/h 41 % 0.0 mm
21:10 20.1 °C 14.0 °C 1017.8 hPa Calm   1.6 km/h 68 % 0.0 mm
21:14 24.3 °C 10.2 °C 1017.8 hPa SW 5.6 km/h 5.6 km/h 41 % 0.0 mm
21:19 24.1 °C 10.0 °C 1017.8 hPa WSW 5.6 km/h 5.6 km/h 41 % 0.0 mm
21:20 19.9 °C 14.3 °C 1018.8 hPa Calm     70 % 0.0 mm
21:24 24.0 °C 10.3 °C 1017.8 hPa South 5.6 km/h 5.6 km/h 42 % 0.0 mm
21:29 23.8 °C 10.1 °C 1017.8 hPa West 3.7 km/h 3.7 km/h 42 % 0.0 mm
21:30 19.6 °C 13.8 °C 1018.8 hPa Calm   1.6 km/h 69 % 0.0 mm
21:34 23.7 °C 10.4 °C 1017.8 hPa SW 6.1 km/h 6.1 km/h 43 % 0.0 mm
21:39 23.5 °C 10.2 °C 1017.8 hPa WSW 7.4 km/h 7.4 km/h 43 % 0.0 mm
21:40 19.3 °C 13.7 °C 1018.8 hPa Calm     70 % 0.0 mm
21:44 23.4 °C 10.4 °C 1017.8 hPa SSW 3.7 km/h 3.7 km/h 44 % 0.0 mm
21:49 23.3 °C 10.3 °C 1017.8 hPa West 5.6 km/h 5.6 km/h 44 % 0.0 mm
21:50 19.1 °C 13.7 °C 1017.8 hPa Calm   1.6 km/h 71 % 0.0 mm
21:54 23.2 °C 10.6 °C 1017.8 hPa West 3.2 km/h 3.2 km/h 45 % 0.0 mm
21:55 23.2 °C 10.6 °C 1017.8 hPa WNW 3.7 km/h 3.7 km/h 45 % 0.0 mm
22:00 23.1 °C 10.5 °C 1018.8 hPa WSW 3.7 km/h 3.7 km/h 45 % 0.0 mm
22:05 23.0 °C 10.8 °C 1018.8 hPa West 3.7 km/h 3.7 km/h 46 % 0.0 mm
22:10 22.9 °C 10.7 °C 1018.8 hPa WSW 3.7 km/h 3.7 km/h 46 % 0.0 mm
22:15 22.8 °C 10.9 °C 1017.8 hPa SW 3.7 km/h 3.7 km/h 47 % 0.0 mm
22:20 22.8 °C 10.9 °C 1017.8 hPa WSW 3.7 km/h 3.7 km/h 47 % 0.0 mm
22:25 22.7 °C 10.8 °C 1017.8 hPa WSW 1.4 km/h 1.9 km/h 47 % 0.0 mm
22:30 22.6 °C 10.7 °C 1018.8 hPa West 5.6 km/h 5.6 km/h 47 % 0.0 mm
22:35 22.5 °C 10.6 °C 1018.8 hPa WSW 7.4 km/h 7.4 km/h 47 % 0.0 mm
22:40 22.5 °C 10.9 °C 1018.8 hPa West 3.9 km/h 3.9 km/h 48 % 0.0 mm
22:45 22.4 °C 10.8 °C 1018.8 hPa SW 4.2 km/h 4.2 km/h 48 % 0.0 mm
22:50 22.3 °C 10.8 °C 1018.8 hPa WSW 3.7 km/h 3.7 km/h 48 % 0.0 mm
22:55 22.2 °C 10.7 °C 1018.8 hPa West 3.7 km/h 3.7 km/h 48 % 0.0 mm
23:00 22.1 °C 10.6 °C 1018.8 hPa SW 4.2 km/h 4.2 km/h 48 % 0.0 mm
23:05 22.0 °C 10.8 °C 1018.8 hPa SW 3.7 km/h 3.7 km/h 49 % 0.0 mm
23:10 22.0 °C 10.8 °C 1018.8 hPa SW 3.7 km/h 3.7 km/h 49 % 0.0 mm
23:15 21.9 °C 10.7 °C 1018.8 hPa West 3.7 km/h 3.7 km/h 49 % 0.0 mm
23:20 21.8 °C 10.6 °C 1018.8 hPa WSW 3.7 km/h 3.7 km/h 49 % 0.0 mm
23:25 21.8 °C 10.9 °C 1018.8 hPa WSW 1.9 km/h 2.3 km/h 50 % 0.0 mm
23:30 21.7 °C 10.8 °C 1018.8 hPa WNW 3.7 km/h 3.7 km/h 50 % 0.0 mm
23:35 21.7 °C 11.1 °C 1018.8 hPa WSW 2.3 km/h   51 % 0.0 mm
23:40 21.6 °C 11.0 °C 1018.8 hPa West 3.7 km/h 3.7 km/h 51 % 0.0 mm
23:41 21.6 °C 11.0 °C 1018.8 hPa West 3.7 km/h 3.7 km/h 51 % 0.0 mm
23:46 21.5 °C 10.9 °C 1018.8 hPa West 3.2 km/h 3.2 km/h 51 % 0.0 mm
23:50 17.7 °C 13.4 °C 1017.8 hPa WNW 1.6 km/h 3.2 km/h 76 % 0.0 mm
23:51 21.5 °C 11.2 °C 1018.8 hPa West 4.2 km/h 4.2 km/h 52 % 0.0 mm
23:56 21.4 °C 11.1 °C 1018.8 hPa WSW 4.2 km/h 4.2 km/h 52 % 0.0 mm
Meteo Sesrovires
Elogis d' Weather Underground - 3.75 mb

Guio original per  Jim McMurry - jmcmurry@mwt.net Adaptat per a la plantilla per  Wim van der Kuil - Leuven-Template.eu

Trobareu la nostra informacio del temps tambe a:

Weather Underground

AWEKAS